Aérodrome :







RETROUVEZ-NOUS SUR...

 
LOGIN :

S'inscrire | Disclaimer

   EN    FR    IT 

 









Légende :    VFR   VFR Marginal   IFR   IFR Intensif   IFR Très Intensif
Visi : 
Plafond : 
>= 8 km
>= 3000ft
5 à 8 km
1000 à 3000 ft
1500m à 5 km
500 à 1000 ft
800 à 1500m
200 à 500 ft
< 800m
< 200 ft
Symboles :   Orages  Brouillard  Fortes neiges  Fortes précipitations  Vent > 20 kt






- Altitude de l'aérodrome : 244 ft
- Code IATA : YQB


CYQB - Quebec - Jean Lesage Int.

DERNIER METAR :
  • 161800Z 23013G21KT 8SM -SN BKN020 BKN060 M00/M04 A2987 RMK SC6SC1 SLP123

METARs EXPIRÉS :
  • 161700Z 24012G19KT 5SM -SN OVC016 M02/M04 A2989 RMK SC8 SLP127
  • 161649Z 25011KT 5SM -SN OVC015 M02/M04 A2989 RMK SC8 SLP128
  • 161600Z 24010G15KT 1 1/2SM -SN OVC012 M03/M05 A2991 RMK SN2SC6 VIS VRB 1-2 SLP136

TAF TAF CYQB
Valide du 16 à 18h jusqu'au 17 à 18h UTC


161739Z 1618/1718 25012G22KT 6SM -SN OVC025
TEMPO 1618/1620 2SM -SHSN OVC015
FM162000 25012G22KT P6SM OVC025
TEMPO 1620/1703 5SM -SHSN OVC020
FM170300 26008KT 11/2SM -SHSN OVC015
PROB30 1704/1707 3/4SM -SHSN VV008
FM170800 26008KT 6SM -SHSN BKN015 OVC030
FM171300 17015KT P6SM SCT050 RMK NXT FCST BY 170000Z
ATIS : ENG : +1 418-871-6893 FRA : +1 418-871-6895



MET'MAP, la Météo Aéronautique d'un coup d'oeil ! - Copyright ORBIFLY Décembre 2007 - Disclaimer

ORBIFLY MET'MAP TEAM :

Programmation & Développement : Alexandra Zaïnal
Sur une idée originale de : Baudouin d'Aumeries
Assistance à la programmation : Marc-Olivier Méhu
Soutien technique & logistique : Manuel Goepfert

Contact : metmap@orbifly.com




SOURCES & CREDITS :

   NOAA